Logan Station, North Carolina
Current Conditions -  °F | °C
As of 5:15 PM on Sunday 25 Jan 2015 (Local Time) from KFQD Reporting Station
Clear Clear  
Wind Chill: 53°   Ceiling: Unl
Heat Index: 53°   Visibility: 10mi
Dew Point: 27°   Wind: 10mph
Humidity: 36%   Direction: 190°S
Pressure: 29.76"   Gusts: 18mph
Location:  35.3722°N, 82.0134°W
Report Text: KFQD 252215Z AUTO 19009G16KT 170V230 10SM CLR 12/M03 A2976 RMK AO2 T01181029
Loading
Personal Weather Stations






























Interactive Weather Map New forecast layout! Learn more

10-Day Weather Forecast

Advertisements
Track Severe Weather on mobile